createdAt,value
2023-03-12T00:02:04.364Z,1.40
2023-03-12T00:04:36.474Z,1.40
2023-03-12T00:07:06.745Z,0.20
2023-03-12T00:09:37.896Z,-3.00
2023-03-12T00:12:11.348Z,-0.90
2023-03-12T00:14:40.206Z,-3.30
2023-03-12T00:17:08.992Z,-2.60
2023-03-12T00:19:37.651Z,1.20
2023-03-12T00:22:06.833Z,1.30
2023-03-12T00:24:35.549Z,1.40
2023-03-12T00:27:06.347Z,1.20
2023-03-12T00:29:38.661Z,-2.10
2023-03-12T00:32:09.958Z,-2.70
2023-03-12T00:34:38.685Z,1.10
2023-03-12T00:37:08.093Z,1.20
2023-03-12T00:39:37.132Z,1.20
2023-03-12T00:42:09.753Z,1.10
2023-03-12T00:44:39.951Z,1.20
2023-03-12T00:47:15.008Z,-2.70
2023-03-12T00:49:44.010Z,1.00
2023-03-12T00:52:12.881Z,-0.40
2023-03-12T00:54:41.950Z,-0.40
2023-03-12T00:57:10.711Z,0.90
2023-03-12T00:59:43.508Z,0.40
2023-03-12T01:02:13.529Z,-0.20
2023-03-12T01:04:42.151Z,0.90
2023-03-12T01:07:12.331Z,-1.50
2023-03-12T01:09:42.343Z,-0.50
2023-03-12T01:12:13.106Z,0.80
2023-03-12T01:14:44.909Z,-4.60
2023-03-12T01:17:13.719Z,0.80
2023-03-12T01:19:44.486Z,-1.70
2023-03-12T01:22:15.460Z,0.80
2023-03-12T01:24:44.221Z,0.20
2023-03-12T01:27:14.464Z,-4.20
2023-03-12T01:29:45.955Z,-2.30
2023-03-12T01:32:17.288Z,0.90
2023-03-12T01:34:58.426Z,0.20
2023-03-12T01:37:27.715Z,0.10
2023-03-12T01:39:56.569Z,-0.50
2023-03-12T01:42:25.678Z,0.90
2023-03-12T01:45:03.730Z,0.80
2023-03-12T01:47:35.145Z,0.80
2023-03-12T01:50:04.862Z,-1.00
2023-03-12T01:52:40.277Z,-3.40
2023-03-12T01:55:14.842Z,0.80
2023-03-12T01:57:50.251Z,-1.70
2023-03-12T02:00:24.349Z,0.80
2023-03-12T02:02:59.632Z,0.80
2023-03-12T02:05:39.262Z,0.80
2023-03-12T02:08:08.387Z,-3.10
2023-03-12T02:10:37.061Z,0.90
2023-03-12T02:13:06.052Z,0.10
2023-03-12T02:15:39.244Z,0.90
2023-03-12T02:18:18.430Z,-0.10
2023-03-12T02:20:58.250Z,1.00
2023-03-12T02:23:35.409Z,-2.30
2023-03-12T02:26:08.677Z,0.50
2023-03-12T02:28:46.303Z,1.30
2023-03-12T02:31:23.439Z,-2.50
2023-03-12T02:34:03.232Z,1.20
2023-03-12T02:36:33.386Z,1.30
2023-03-12T02:39:02.361Z,0.80
2023-03-12T02:41:39.741Z,1.30
2023-03-12T02:44:16.189Z,-1.50
2023-03-12T02:46:54.215Z,1.30
2023-03-12T02:49:25.938Z,1.40
2023-03-12T02:51:57.692Z,1.50
2023-03-12T02:54:29.433Z,-0.30
2023-03-12T02:57:04.956Z,-3.70
2023-03-12T02:59:38.065Z,1.30
2023-03-12T03:02:07.691Z,1.20
2023-03-12T03:04:36.680Z,1.30
2023-03-12T03:07:07.323Z,1.10
2023-03-12T03:09:40.901Z,0.70
2023-03-12T03:12:12.996Z,0.30
2023-03-12T03:14:43.098Z,1.50
2023-03-12T03:17:13.950Z,-0.10
2023-03-12T03:19:43.080Z,-1.20
2023-03-12T03:22:13.955Z,1.40
2023-03-12T03:25:15.576Z,1.60
2023-03-12T03:27:38.149Z,1.70
2023-03-12T03:30:12.249Z,1.60
2023-03-12T03:32:41.493Z,1.00
2023-03-12T03:35:19.807Z,1.40
2023-03-12T03:37:48.868Z,0.90
2023-03-12T03:40:18.253Z,-1.30
2023-03-12T03:42:54.753Z,-1.30
2023-03-12T03:45:25.835Z,1.10
2023-03-12T03:47:56.260Z,1.10
2023-03-12T03:50:26.337Z,0.50
2023-03-12T03:52:55.234Z,1.00
2023-03-12T03:55:26.017Z,-1.10
2023-03-12T03:57:58.789Z,1.20
2023-03-12T04:00:31.959Z,-2.60
2023-03-12T04:03:11.808Z,0.00
2023-03-12T04:05:51.399Z,-1.90
2023-03-12T04:08:20.344Z,0.80
2023-03-12T04:10:49.111Z,-0.40
2023-03-12T04:13:19.399Z,-3.50
2023-03-12T04:15:49.684Z,1.50
2023-03-12T04:18:20.981Z,1.60
2023-03-12T04:20:50.256Z,-1.30
2023-03-12T04:23:19.057Z,-3.70
2023-03-12T04:25:47.862Z,1.60
2023-03-12T04:28:21.935Z,1.60
2023-03-12T04:31:03.148Z,-0.20
2023-03-12T04:33:51.273Z,0.20
2023-03-12T04:36:24.195Z,0.10
2023-03-12T04:38:57.452Z,-5.00
2023-03-12T04:41:26.385Z,1.60
2023-03-12T04:44:01.308Z,-2.40
2023-03-12T04:46:31.981Z,1.30
2023-03-12T04:49:07.002Z,0.10
2023-03-12T04:51:48.170Z,1.70
2023-03-12T04:54:17.158Z,1.00
2023-03-12T04:56:46.132Z,-2.20
2023-03-12T04:59:16.621Z,1.40
2023-03-12T05:01:45.595Z,2.00
2023-03-12T05:04:14.635Z,1.70
2023-03-12T05:06:43.549Z,1.90
2023-03-12T05:09:12.345Z,-2.70
2023-03-12T05:11:41.070Z,-0.40
2023-03-12T05:14:11.055Z,1.80
2023-03-12T05:16:41.376Z,1.70
2023-03-12T05:19:10.329Z,1.70
2023-03-12T05:21:41.560Z,-0.70
2023-03-12T05:24:13.386Z,-1.70
2023-03-12T05:26:42.213Z,-0.20
2023-03-12T05:29:12.488Z,1.90
2023-03-12T05:31:42.771Z,1.60
2023-03-12T05:34:14.502Z,1.80
2023-03-12T05:36:43.704Z,0.90
2023-03-12T05:39:12.510Z,2.30
2023-03-12T05:41:41.529Z,2.30
2023-03-12T05:44:16.272Z,0.50
2023-03-12T05:46:46.620Z,2.20
2023-03-12T05:49:15.267Z,1.00
2023-03-12T05:51:44.617Z,2.20
2023-03-12T05:54:13.562Z,-2.00
2023-03-12T05:56:42.318Z,2.40
2023-03-12T05:59:11.848Z,-0.60
2023-03-12T06:01:45.865Z,2.00
2023-03-12T06:04:15.977Z,2.10
2023-03-12T06:06:44.843Z,2.10
2023-03-12T06:09:15.598Z,-1.50
2023-03-12T06:11:46.333Z,2.20
2023-03-12T06:14:16.598Z,0.70
2023-03-12T06:16:45.518Z,2.40
2023-03-12T06:19:16.138Z,2.40
2023-03-12T06:21:45.193Z,2.60
2023-03-12T06:24:14.121Z,-1.10
2023-03-12T06:26:44.826Z,-1.80
2023-03-12T06:29:14.830Z,2.60
2023-03-12T06:31:44.275Z,2.80
2023-03-12T06:34:13.529Z,-2.20
2023-03-12T06:36:43.809Z,2.00
2023-03-12T06:39:12.897Z,-2.30
2023-03-12T06:41:44.743Z,2.80
2023-03-12T06:44:13.627Z,2.20
2023-03-12T06:46:44.449Z,2.70
2023-03-12T06:49:13.943Z,2.30
2023-03-12T06:51:44.366Z,3.10
2023-03-12T06:54:13.210Z,3.30
2023-03-12T06:56:42.202Z,-0.80
2023-03-12T06:59:11.147Z,1.20
2023-03-12T07:02:04.894Z,-1.70
2023-03-12T07:09:32.854Z,3.10
2023-03-12T07:11:54.541Z,-1.60
2023-03-12T07:14:27.116Z,3.40
2023-03-12T07:17:08.102Z,3.60
2023-03-12T07:19:49.905Z,-0.40
2023-03-12T07:22:34.184Z,-0.20
2023-03-12T07:25:17.274Z,-1.80
2023-03-12T07:27:55.436Z,-0.50
2023-03-12T07:30:40.970Z,3.20
2023-03-12T07:33:16.397Z,3.20
2023-03-12T07:36:10.435Z,2.00
2023-03-12T07:40:16.384Z,3.60
2023-03-12T07:41:40.847Z,3.60
2023-03-12T07:44:27.256Z,2.10
2023-03-12T07:47:02.966Z,3.30
2023-03-12T07:49:43.139Z,-0.30
2023-03-12T07:52:12.194Z,3.90
2023-03-12T07:54:58.806Z,1.90
2023-03-12T07:57:27.699Z,4.20
2023-03-12T07:59:57.849Z,4.00
2023-03-12T08:02:26.548Z,2.90
2023-03-12T08:04:55.240Z,4.30
2023-03-12T08:07:23.934Z,2.50
2023-03-12T08:09:52.699Z,4.50
2023-03-12T08:12:21.384Z,4.40
2023-03-12T08:14:50.085Z,2.10
2023-03-12T08:17:20.494Z,-0.30
2023-03-12T08:19:49.544Z,4.30
2023-03-12T08:22:18.376Z,2.50
2023-03-12T08:24:47.661Z,4.90
2023-03-12T08:27:20.129Z,1.50
2023-03-12T08:29:48.974Z,5.10
2023-03-12T08:32:20.706Z,1.00
2023-03-12T08:34:49.615Z,4.00
2023-03-12T08:37:25.653Z,3.30
2023-03-12T08:39:58.520Z,1.70
2023-03-12T08:42:27.459Z,1.70
2023-03-12T08:44:56.155Z,2.30
2023-03-12T08:47:26.670Z,4.70
2023-03-12T08:49:56.535Z,4.80
2023-03-12T08:52:25.375Z,0.20
2023-03-12T08:54:54.239Z,2.10
2023-03-12T08:57:23.012Z,4.80
2023-03-12T08:59:51.684Z,1.20
2023-03-12T09:02:21.587Z,2.00
2023-03-12T09:04:52.274Z,2.90
2023-03-12T09:07:22.375Z,0.50
2023-03-12T09:09:52.712Z,4.60
2023-03-12T09:12:23.679Z,5.40
2023-03-12T09:15:08.735Z,5.50
2023-03-12T09:17:38.094Z,3.40
2023-03-12T09:20:14.158Z,5.80
2023-03-12T09:22:43.458Z,4.80
2023-03-12T09:25:15.648Z,2.80
2023-03-12T09:27:47.590Z,4.50
2023-03-12T09:30:24.764Z,6.40
2023-03-12T09:32:53.574Z,6.30
2023-03-12T09:35:23.847Z,6.10
2023-03-12T09:37:52.696Z,6.10
2023-03-12T09:40:25.662Z,6.40
2023-03-12T09:42:59.041Z,6.10
2023-03-12T09:45:32.054Z,5.80
2023-03-12T09:48:04.351Z,5.70
2023-03-12T09:50:40.615Z,5.30
2023-03-12T09:53:16.118Z,5.50
2023-03-12T09:55:50.442Z,5.80
2023-03-12T09:58:28.656Z,3.80
2023-03-12T10:01:05.759Z,1.30
2023-03-12T10:04:03.826Z,4.20
2023-03-12T10:06:40.369Z,6.00
2023-03-12T10:09:38.569Z,4.80
2023-03-12T10:12:21.940Z,6.00
2023-03-12T10:15:09.398Z,5.30
2023-03-12T10:17:56.316Z,5.90
2023-03-12T10:20:56.691Z,6.00
2023-03-12T10:23:46.549Z,6.00
2023-03-12T10:26:23.697Z,6.20
2023-03-12T10:28:58.936Z,3.50
2023-03-12T10:31:36.137Z,2.70
2023-03-12T10:34:17.036Z,3.30
2023-03-12T10:36:48.389Z,3.90
2023-03-12T10:39:22.883Z,5.80
2023-03-12T10:41:53.167Z,5.30
2023-03-12T10:44:27.115Z,6.10
2023-03-12T10:47:19.106Z,6.00
2023-03-12T10:49:50.896Z,6.10
2023-03-12T10:52:22.147Z,4.70
2023-03-12T10:54:54.995Z,6.30
2023-03-12T10:57:24.048Z,3.50
2023-03-12T10:59:53.161Z,6.40
2023-03-12T11:02:36.749Z,6.40
2023-03-12T11:05:24.373Z,5.20
2023-03-12T11:07:54.097Z,6.50
2023-03-12T11:10:27.550Z,5.40
2023-03-12T11:13:02.223Z,6.60
2023-03-12T11:15:41.084Z,3.80
2023-03-12T11:18:35.466Z,1.00
2023-03-12T11:21:20.314Z,4.90
2023-03-12T11:24:16.227Z,6.70
2023-03-12T11:26:56.822Z,6.70
2023-03-12T11:29:31.669Z,3.40
2023-03-12T11:32:16.908Z,4.30
2023-03-12T11:34:47.804Z,7.20
2023-03-12T11:37:30.512Z,5.70
2023-03-12T11:40:17.020Z,5.70
2023-03-12T11:43:12.634Z,7.50
2023-03-12T11:45:58.484Z,7.40
2023-03-12T11:48:40.203Z,7.60
2023-03-12T11:51:26.768Z,6.60
2023-03-12T11:54:42.657Z,7.80
2023-03-12T11:57:22.485Z,4.50
2023-03-12T12:00:12.490Z,4.80
2023-03-12T12:03:41.144Z,8.20
2023-03-12T12:06:24.302Z,8.40
2023-03-12T12:09:20.359Z,5.40
2023-03-12T12:12:10.144Z,8.90
2023-03-12T12:15:03.992Z,4.30
2023-03-12T12:17:49.997Z,8.80
2023-03-12T12:20:42.406Z,7.20
2023-03-12T12:23:33.353Z,5.80
2023-03-12T12:26:10.884Z,6.30
2023-03-12T12:29:18.677Z,9.70
2023-03-12T12:31:56.860Z,7.80
2023-03-12T12:34:47.417Z,6.30
2023-03-12T12:37:47.669Z,10.10
2023-03-12T12:40:24.493Z,5.90
2023-03-12T12:43:05.385Z,10.00
2023-03-12T12:45:34.232Z,7.20
2023-03-12T12:48:11.285Z,8.80
2023-03-12T12:50:41.312Z,9.10
2023-03-12T12:53:25.352Z,10.80
2023-03-12T12:56:12.541Z,8.30
2023-03-12T12:59:03.521Z,10.80
2023-03-12T13:01:35.275Z,11.10
2023-03-12T13:04:15.219Z,9.90
2023-03-12T13:07:05.985Z,11.80
2023-03-12T13:09:45.412Z,10.60
2023-03-12T13:12:21.206Z,7.70
2023-03-12T13:14:53.655Z,11.30
2023-03-12T13:17:34.542Z,9.40
2023-03-12T13:20:18.046Z,11.00
2023-03-12T13:23:27.113Z,11.20
2023-03-12T13:26:05.080Z,11.50
2023-03-12T13:29:11.365Z,10.50
2023-03-12T13:31:46.169Z,11.60
2023-03-12T13:34:46.265Z,9.00
2023-03-12T13:38:03.297Z,10.80
2023-03-12T13:40:53.854Z,8.20
2023-03-12T13:43:56.322Z,11.10
2023-03-12T13:46:47.231Z,12.50
2023-03-12T13:49:19.917Z,9.60
2023-03-12T13:52:01.346Z,12.40
2023-03-12T13:54:41.733Z,12.20
2023-03-12T13:57:25.887Z,12.20
2023-03-12T13:59:54.722Z,12.20
2023-03-12T14:02:30.049Z,12.20
2023-03-12T14:05:07.788Z,12.20
2023-03-12T14:08:16.005Z,11.50
2023-03-12T14:11:06.460Z,12.20
2023-03-12T14:14:08.867Z,12.30
2023-03-12T14:16:43.437Z,12.40
2023-03-12T14:19:15.773Z,12.50
2023-03-12T14:21:56.762Z,12.70
2023-03-12T14:24:31.352Z,11.30
2023-03-12T14:27:03.694Z,13.10
2023-03-12T14:29:40.067Z,13.20
2023-03-12T14:32:19.753Z,13.30
2023-03-12T14:34:54.950Z,13.10
2023-03-12T14:37:29.485Z,12.10
2023-03-12T14:40:04.298Z,12.90
2023-03-12T14:42:37.018Z,12.70
2023-03-12T14:45:13.967Z,12.60
2023-03-12T14:47:43.303Z,11.00
2023-03-12T14:50:20.414Z,11.80
2023-03-12T14:52:49.244Z,10.10
2023-03-12T14:55:22.849Z,11.60
2023-03-12T14:58:05.870Z,9.70
2023-03-12T15:00:35.109Z,11.40
2023-03-12T15:03:12.821Z,11.60
2023-03-12T15:05:47.788Z,11.70
2023-03-12T15:08:17.860Z,11.90
2023-03-12T15:10:51.233Z,10.20
2023-03-12T15:13:23.980Z,11.80
2023-03-12T15:15:56.272Z,11.90
2023-03-12T15:18:29.116Z,12.10
2023-03-12T15:21:00.726Z,12.10
2023-03-12T15:23:33.375Z,12.30
2023-03-12T15:26:18.641Z,12.80
2023-03-12T15:28:59.762Z,10.50
2023-03-12T15:31:41.360Z,15.20
2023-03-12T15:34:12.900Z,14.30
2023-03-12T15:36:49.544Z,13.90
2023-03-12T15:39:27.876Z,13.90
2023-03-12T15:42:00.950Z,13.80
2023-03-12T15:44:44.236Z,12.60
2023-03-12T15:47:17.243Z,13.30
2023-03-12T15:49:53.011Z,13.20
2023-03-12T15:52:32.381Z,13.20
2023-03-12T15:55:09.202Z,13.20
2023-03-12T15:57:49.202Z,13.10
2023-03-12T16:00:29.498Z,12.90
2023-03-12T16:03:00.374Z,9.90
2023-03-12T16:05:33.260Z,11.80
2023-03-12T16:08:04.646Z,13.00
2023-03-12T16:10:38.768Z,12.90
2023-03-12T16:13:08.364Z,12.90
2023-03-12T16:15:40.779Z,10.40
2023-03-12T16:18:15.457Z,10.70
2023-03-12T16:20:44.420Z,12.20
2023-03-12T16:23:13.306Z,12.20
2023-03-12T16:25:44.710Z,12.20
2023-03-12T16:28:17.993Z,12.20
2023-03-12T16:30:48.296Z,11.10
2023-03-12T16:33:20.326Z,12.10
2023-03-12T16:35:51.103Z,12.10
2023-03-12T16:38:19.825Z,12.10
2023-03-12T16:40:50.816Z,12.10
2023-03-12T16:43:22.158Z,12.20
2023-03-12T16:45:54.473Z,12.10
2023-03-12T16:48:26.594Z,10.10
2023-03-12T16:50:58.880Z,10.40
2023-03-12T16:53:28.204Z,12.10
2023-03-12T16:55:59.875Z,12.00
2023-03-12T16:58:30.408Z,12.00
2023-03-12T17:01:00.614Z,10.60
2023-03-12T17:03:36.349Z,11.90
2023-03-12T17:06:07.521Z,11.70
2023-03-12T17:08:36.343Z,11.70
2023-03-12T17:11:15.288Z,11.50
2023-03-12T17:13:46.926Z,11.30
2023-03-12T17:16:17.428Z,11.20
2023-03-12T17:18:46.560Z,8.90
2023-03-12T17:21:18.551Z,11.10
2023-03-12T17:23:50.785Z,10.90
2023-03-12T17:26:20.534Z,10.90
2023-03-12T17:28:49.183Z,9.80
2023-03-12T17:31:19.497Z,10.80
2023-03-12T17:33:48.525Z,6.60
2023-03-12T17:36:17.240Z,10.80
2023-03-12T17:38:45.825Z,10.50
2023-03-12T17:41:26.022Z,10.50
2023-03-12T17:43:58.825Z,10.40
2023-03-12T17:46:29.813Z,9.20
2023-03-12T17:48:58.728Z,10.20
2023-03-12T17:51:27.337Z,8.00
2023-03-12T17:53:56.518Z,10.20
2023-03-12T17:56:34.869Z,10.00
2023-03-12T17:59:03.785Z,10.10
2023-03-12T18:01:36.201Z,8.40
2023-03-12T18:04:05.034Z,9.90
2023-03-12T18:06:33.802Z,9.70
2023-03-12T18:09:02.749Z,9.20
2023-03-12T18:11:31.814Z,5.50
2023-03-12T18:14:00.587Z,5.40
2023-03-12T18:16:29.476Z,9.60
2023-03-12T18:18:59.674Z,7.30
2023-03-12T18:21:28.492Z,6.70
2023-03-12T18:23:59.477Z,8.40
2023-03-12T18:26:31.072Z,9.20
2023-03-12T18:29:01.425Z,9.20
2023-03-12T18:31:30.446Z,8.10
2023-03-12T18:35:37.971Z,8.20
2023-03-12T18:37:44.976Z,9.20
2023-03-12T18:40:15.747Z,8.60
2023-03-12T18:43:02.555Z,9.10
2023-03-12T18:45:31.829Z,9.10
2023-03-12T18:48:03.733Z,8.80
2023-03-12T18:50:34.866Z,8.80
2023-03-12T18:53:04.363Z,4.10
2023-03-12T18:55:33.279Z,8.70
2023-03-12T18:58:02.428Z,8.80
2023-03-12T19:00:31.200Z,8.40
2023-03-12T19:03:01.299Z,8.70
2023-03-12T19:05:40.278Z,7.20
2023-03-12T19:08:10.972Z,8.40
2023-03-12T19:10:42.256Z,8.60
2023-03-12T19:13:12.710Z,8.60
2023-03-12T19:15:42.795Z,8.60
2023-03-12T19:18:15.703Z,8.60
2023-03-12T19:20:47.761Z,8.60
2023-03-12T19:23:18.086Z,8.50
2023-03-12T19:25:47.047Z,5.80
2023-03-12T19:28:15.909Z,8.60
2023-03-12T19:30:44.652Z,8.60
2023-03-12T19:33:15.558Z,5.40
2023-03-12T19:35:58.577Z,4.80
2023-03-12T19:38:38.786Z,8.70
2023-03-12T19:41:13.357Z,8.70
2023-03-12T19:43:46.476Z,8.50
2023-03-12T19:46:17.318Z,8.60
2023-03-12T19:48:46.095Z,6.30
2023-03-12T19:51:14.849Z,6.50
2023-03-12T19:53:47.020Z,4.00
2023-03-12T19:56:18.205Z,5.50
2023-03-12T19:58:49.112Z,8.50
2023-03-12T20:01:26.477Z,7.40
2023-03-12T20:03:57.346Z,4.00
2023-03-12T20:06:27.613Z,8.50
2023-03-12T20:08:58.132Z,8.60
2023-03-12T20:11:27.911Z,8.50
2023-03-12T20:13:56.733Z,8.50
2023-03-12T20:16:42.650Z,3.30
2023-03-12T20:19:21.107Z,8.50
2023-03-12T20:22:05.817Z,8.20
2023-03-12T20:25:12.226Z,8.40
2023-03-12T20:27:41.310Z,7.90
2023-03-12T20:30:22.532Z,8.20
2023-03-12T20:32:51.571Z,3.70
2023-03-12T20:35:35.709Z,8.20
2023-03-12T20:38:06.533Z,7.60
2023-03-12T20:40:51.272Z,8.10
2023-03-12T20:43:20.343Z,5.90
2023-03-12T20:45:52.110Z,8.00
2023-03-12T20:49:04.133Z,7.50
2023-03-12T20:51:25.255Z,7.30
2023-03-12T20:54:22.858Z,7.90
2023-03-12T20:56:54.628Z,4.20
2023-03-12T20:59:38.204Z,4.10
2023-03-12T21:02:07.202Z,7.80
2023-03-12T21:04:37.305Z,6.10
2023-03-12T21:07:06.419Z,7.60
2023-03-12T21:09:35.448Z,6.40
2023-03-12T21:12:06.255Z,3.60
2023-03-12T21:14:34.918Z,4.00
2023-03-12T21:17:04.053Z,7.70
2023-03-12T21:19:33.290Z,4.30
2023-03-12T21:22:02.397Z,7.90
2023-03-12T21:24:33.950Z,7.70
2023-03-12T21:27:13.157Z,4.40
2023-03-12T21:29:42.047Z,5.10
2023-03-12T21:32:11.180Z,7.80
2023-03-12T21:34:40.341Z,7.70
2023-03-12T21:37:21.649Z,2.90
2023-03-12T21:40:11.516Z,7.60
2023-03-12T21:42:44.470Z,4.20
2023-03-12T21:45:17.215Z,7.70
2023-03-12T21:47:46.078Z,4.30
2023-03-12T21:50:15.084Z,7.70
2023-03-12T21:52:49.067Z,7.60
2023-03-12T21:55:19.308Z,7.70
2023-03-12T21:57:49.768Z,7.70
2023-03-12T22:00:19.650Z,7.70
2023-03-12T22:02:48.765Z,7.40
2023-03-12T22:05:18.212Z,6.20
2023-03-12T22:07:47.129Z,7.40
2023-03-12T22:10:18.789Z,5.40
2023-03-12T22:12:53.468Z,7.50
2023-03-12T22:15:24.057Z,3.10
2023-03-12T22:17:52.940Z,7.40
2023-03-12T22:23:49.855Z,7.50
2023-03-12T22:26:23.607Z,2.90
2023-03-12T22:29:13.701Z,7.60
2023-03-12T22:35:04.203Z,5.20
2023-03-12T22:37:45.801Z,7.60
2023-03-12T22:40:18.096Z,3.20
2023-03-12T22:42:52.520Z,5.70
2023-03-12T22:45:26.591Z,7.40
2023-03-12T22:48:45.716Z,7.50
2023-03-12T22:50:59.352Z,6.30
2023-03-12T22:53:38.402Z,5.30
2023-03-12T22:56:13.350Z,7.40
2023-03-12T22:58:52.925Z,5.20
2023-03-12T23:01:24.601Z,5.80
2023-03-12T23:04:04.524Z,4.90
2023-03-12T23:06:35.044Z,7.50
2023-03-12T23:09:14.512Z,7.30
2023-03-12T23:11:54.222Z,4.70
2023-03-12T23:14:27.323Z,7.30
2023-03-12T23:17:00.237Z,7.40
2023-03-12T23:19:45.830Z,6.80
2023-03-12T23:22:45.666Z,7.20
2023-03-12T23:25:05.341Z,7.20
2023-03-12T23:27:34.552Z,7.20
2023-03-12T23:30:04.624Z,6.70
2023-03-12T23:32:36.269Z,4.20
2023-03-12T23:35:44.638Z,7.00
2023-03-12T23:38:03.694Z,7.00
2023-03-12T23:40:32.304Z,2.90
2023-03-12T23:43:07.065Z,6.90
2023-03-12T23:45:37.233Z,4.40
2023-03-12T23:48:20.281Z,6.90
2023-03-12T23:50:51.939Z,6.90
2023-03-12T23:53:20.717Z,6.80
2023-03-12T23:55:57.585Z,6.60
2023-03-12T23:58:29.436Z,6.40
